sensor_id;sensor_type;location;lat;lon;timestamp;temperature;humidity
8856;DHT22;4464;50.882;4.730;2023-04-03T00:01:44;1.90;99.90
8856;DHT22;4464;50.882;4.730;2023-04-03T00:04:12;2.00;99.90
8856;DHT22;4464;50.882;4.730;2023-04-03T00:06:40;1.90;99.90
8856;DHT22;4464;50.882;4.730;2023-04-03T00:09:06;1.80;99.90
8856;DHT22;4464;50.882;4.730;2023-04-03T00:11:32;1.90;99.90
8856;DHT22;4464;50.882;4.730;2023-04-03T00:13:57;1.90;99.90
8856;DHT22;4464;50.882;4.730;2023-04-03T00:16:23;1.80;99.90
8856;DHT22;4464;50.882;4.730;2023-04-03T00:18:49;1.90;99.90
8856;DHT22;4464;50.882;4.730;2023-04-03T00:21:17;1.80;99.90
8856;DHT22;4464;50.882;4.730;2023-04-03T00:23:45;1.80;99.90
8856;DHT22;4464;50.882;4.730;2023-04-03T00:26:10;1.80;99.90
8856;DHT22;4464;50.882;4.730;2023-04-03T00:28:36;1.80;99.90
8856;DHT22;4464;50.882;4.730;2023-04-03T00:31:02;1.80;99.90
8856;DHT22;4464;50.882;4.730;2023-04-03T00:33:30;1.80;99.90
8856;DHT22;4464;50.882;4.730;2023-04-03T00:35:56;1.70;99.90
8856;DHT22;4464;50.882;4.730;2023-04-03T00:38:23;1.70;99.90
8856;DHT22;4464;50.882;4.730;2023-04-03T00:40:52;1.70;99.90
8856;DHT22;4464;50.882;4.730;2023-04-03T00:43:24;1.70;99.90
8856;DHT22;4464;50.882;4.730;2023-04-03T00:45:55;1.70;99.90
8856;DHT22;4464;50.882;4.730;2023-04-03T00:48:39;1.60;99.90
8856;DHT22;4464;50.882;4.730;2023-04-03T00:51:11;1.60;99.90
8856;DHT22;4464;50.882;4.730;2023-04-03T00:54:05;1.70;99.90
8856;DHT22;4464;50.882;4.730;2023-04-03T00:56:35;1.70;99.90
8856;DHT22;4464;50.882;4.730;2023-04-03T00:59:05;1.70;99.90
8856;DHT22;4464;50.882;4.730;2023-04-03T01:01:33;1.70;99.90
8856;DHT22;4464;50.882;4.730;2023-04-03T01:04:00;1.70;99.90
8856;DHT22;4464;50.882;4.730;2023-04-03T01:06:36;1.60;99.90
8856;DHT22;4464;50.882;4.730;2023-04-03T01:09:03;1.70;99.90
8856;DHT22;4464;50.882;4.730;2023-04-03T01:11:29;1.70;99.90
8856;DHT22;4464;50.882;4.730;2023-04-03T01:13:55;1.60;99.90
8856;DHT22;4464;50.882;4.730;2023-04-03T01:16:20;1.60;99.90
8856;DHT22;4464;50.882;4.730;2023-04-03T01:18:46;1.60;99.90
8856;DHT22;4464;50.882;4.730;2023-04-03T01:26:15;1.60;99.90
8856;DHT22;4464;50.882;4.730;2023-04-03T01:28:41;1.60;99.90
8856;DHT22;4464;50.882;4.730;2023-04-03T01:33:59;1.60;99.90
8856;DHT22;4464;50.882;4.730;2023-04-03T01:36:28;1.60;99.90
8856;DHT22;4464;50.882;4.730;2023-04-03T01:38:55;1.60;99.90
8856;DHT22;4464;50.882;4.730;2023-04-03T01:41:24;1.60;99.90
8856;DHT22;4464;50.882;4.730;2023-04-03T01:43:52;1.60;99.90
8856;DHT22;4464;50.882;4.730;2023-04-03T01:46:21;1.60;99.90
8856;DHT22;4464;50.882;4.730;2023-04-03T01:48:47;1.60;99.90
8856;DHT22;4464;50.882;4.730;2023-04-03T01:51:13;1.50;99.90
8856;DHT22;4464;50.882;4.730;2023-04-03T01:53:39;1.60;99.90
8856;DHT22;4464;50.882;4.730;2023-04-03T01:56:05;1.50;99.90
8856;DHT22;4464;50.882;4.730;2023-04-03T01:58:31;1.50;99.90
8856;DHT22;4464;50.882;4.730;2023-04-03T02:00:56;1.60;99.90
8856;DHT22;4464;50.882;4.730;2023-04-03T02:03:25;1.50;99.90
8856;DHT22;4464;50.882;4.730;2023-04-03T02:05:53;1.50;99.90
8856;DHT22;4464;50.882;4.730;2023-04-03T02:08:21;1.40;99.90
8856;DHT22;4464;50.882;4.730;2023-04-03T02:10:51;1.50;99.90
8856;DHT22;4464;50.882;4.730;2023-04-03T02:13:19;1.40;99.90
8856;DHT22;4464;50.882;4.730;2023-04-03T02:15:45;1.40;99.90
8856;DHT22;4464;50.882;4.730;2023-04-03T02:18:12;1.40;99.90
8856;DHT22;4464;50.882;4.730;2023-04-03T02:20:37;1.40;99.90
8856;DHT22;4464;50.882;4.730;2023-04-03T02:23:03;1.40;99.90
8856;DHT22;4464;50.882;4.730;2023-04-03T02:25:31;1.30;99.90
8856;DHT22;4464;50.882;4.730;2023-04-03T02:27:57;1.30;99.90
8856;DHT22;4464;50.882;4.730;2023-04-03T02:30:22;1.30;99.90
8856;DHT22;4464;50.882;4.730;2023-04-03T02:32:50;1.30;99.90
8856;DHT22;4464;50.882;4.730;2023-04-03T02:35:18;1.30;99.90
8856;DHT22;4464;50.882;4.730;2023-04-03T02:37:44;1.30;99.90
8856;DHT22;4464;50.882;4.730;2023-04-03T02:40:10;1.20;99.90
8856;DHT22;4464;50.882;4.730;2023-04-03T02:42:37;1.20;99.90
8856;DHT22;4464;50.882;4.730;2023-04-03T02:45:03;1.20;99.90
8856;DHT22;4464;50.882;4.730;2023-04-03T02:47:28;1.20;99.90
8856;DHT22;4464;50.882;4.730;2023-04-03T02:50:01;1.20;99.90
8856;DHT22;4464;50.882;4.730;2023-04-03T02:52:27;1.10;99.90
8856;DHT22;4464;50.882;4.730;2023-04-03T02:54:57;1.10;99.90
8856;DHT22;4464;50.882;4.730;2023-04-03T02:57:25;1.10;99.90
8856;DHT22;4464;50.882;4.730;2023-04-03T02:59:51;1.10;99.90
8856;DHT22;4464;50.882;4.730;2023-04-03T03:02:16;1.10;99.90
8856;DHT22;4464;50.882;4.730;2023-04-03T03:04:42;1.10;99.90
8856;DHT22;4464;50.882;4.730;2023-04-03T03:07:08;1.10;99.90
8856;DHT22;4464;50.882;4.730;2023-04-03T03:09:34;1.10;99.90
8856;DHT22;4464;50.882;4.730;2023-04-03T03:12:00;1.10;99.90
8856;DHT22;4464;50.882;4.730;2023-04-03T03:14:26;1.00;99.90
8856;DHT22;4464;50.882;4.730;2023-04-03T03:16:51;0.90;99.90
8856;DHT22;4464;50.882;4.730;2023-04-03T03:19:17;0.90;99.90
8856;DHT22;4464;50.882;4.730;2023-04-03T03:21:43;0.90;99.90
8856;DHT22;4464;50.882;4.730;2023-04-03T03:24:08;0.90;99.90
8856;DHT22;4464;50.882;4.730;2023-04-03T03:26:34;0.80;99.90
8856;DHT22;4464;50.882;4.730;2023-04-03T03:29:05;0.80;99.90
8856;DHT22;4464;50.882;4.730;2023-04-03T03:31:31;0.80;99.90
8856;DHT22;4464;50.882;4.730;2023-04-03T03:33:56;0.80;99.90
8856;DHT22;4464;50.882;4.730;2023-04-03T03:36:22;0.70;99.90
8856;DHT22;4464;50.882;4.730;2023-04-03T03:38:50;0.70;99.90
8856;DHT22;4464;50.882;4.730;2023-04-03T03:41:16;0.70;99.90
8856;DHT22;4464;50.882;4.730;2023-04-03T03:43:42;0.70;99.90
8856;DHT22;4464;50.882;4.730;2023-04-03T03:46:07;0.70;99.90
8856;DHT22;4464;50.882;4.730;2023-04-03T03:48:35;0.60;99.90
8856;DHT22;4464;50.882;4.730;2023-04-03T03:51:03;0.60;99.90
8856;DHT22;4464;50.882;4.730;2023-04-03T03:53:29;0.70;99.90
8856;DHT22;4464;50.882;4.730;2023-04-03T03:55:55;0.60;99.90
8856;DHT22;4464;50.882;4.730;2023-04-03T03:58:20;0.70;99.90
8856;DHT22;4464;50.882;4.730;2023-04-03T04:00:47;0.60;99.90
8856;DHT22;4464;50.882;4.730;2023-04-03T04:03:12;0.60;99.90
8856;DHT22;4464;50.882;4.730;2023-04-03T04:05:40;0.60;99.90
8856;DHT22;4464;50.882;4.730;2023-04-03T04:08:08;0.70;99.90
8856;DHT22;4464;50.882;4.730;2023-04-03T04:10:35;0.70;99.90
8856;DHT22;4464;50.882;4.730;2023-04-03T04:13:03;0.70;99.90
8856;DHT22;4464;50.882;4.730;2023-04-03T04:15:29;0.60;99.90
8856;DHT22;4464;50.882;4.730;2023-04-03T04:17:55;0.60;99.90
8856;DHT22;4464;50.882;4.730;2023-04-03T04:20:20;0.60;99.90
8856;DHT22;4464;50.882;4.730;2023-04-03T04:22:46;0.60;99.90
8856;DHT22;4464;50.882;4.730;2023-04-03T04:25:12;0.60;99.90
8856;DHT22;4464;50.882;4.730;2023-04-03T04:27:38;0.60;99.90
8856;DHT22;4464;50.882;4.730;2023-04-03T04:30:10;0.60;99.90
8856;DHT22;4464;50.882;4.730;2023-04-03T04:32:36;0.60;99.90
8856;DHT22;4464;50.882;4.730;2023-04-03T04:35:03;0.60;99.90
8856;DHT22;4464;50.882;4.730;2023-04-03T04:37:29;0.60;99.90
8856;DHT22;4464;50.882;4.730;2023-04-03T04:39:55;0.60;99.90
8856;DHT22;4464;50.882;4.730;2023-04-03T04:42:20;0.60;99.90
8856;DHT22;4464;50.882;4.730;2023-04-03T04:44:46;0.60;99.90
8856;DHT22;4464;50.882;4.730;2023-04-03T04:47:12;0.50;99.90
8856;DHT22;4464;50.882;4.730;2023-04-03T04:49:38;0.50;99.90
8856;DHT22;4464;50.882;4.730;2023-04-03T04:52:04;0.50;99.90
8856;DHT22;4464;50.882;4.730;2023-04-03T04:54:29;0.60;99.90
8856;DHT22;4464;50.882;4.730;2023-04-03T04:56:55;0.50;99.90
8856;DHT22;4464;50.882;4.730;2023-04-03T04:59:21;0.60;99.90
8856;DHT22;4464;50.882;4.730;2023-04-03T05:01:48;0.50;99.90
8856;DHT22;4464;50.882;4.730;2023-04-03T05:04:16;0.60;99.90
8856;DHT22;4464;50.882;4.730;2023-04-03T05:06:47;0.60;99.90
8856;DHT22;4464;50.882;4.730;2023-04-03T05:09:13;0.60;99.90
8856;DHT22;4464;50.882;4.730;2023-04-03T05:11:38;0.60;99.90
8856;DHT22;4464;50.882;4.730;2023-04-03T05:14:07;0.60;99.90
8856;DHT22;4464;50.882;4.730;2023-04-03T05:16:35;0.60;99.90
8856;DHT22;4464;50.882;4.730;2023-04-03T05:19:01;0.60;99.90
8856;DHT22;4464;50.882;4.730;2023-04-03T05:21:29;0.60;99.90
8856;DHT22;4464;50.882;4.730;2023-04-03T05:24:00;0.60;99.90
8856;DHT22;4464;50.882;4.730;2023-04-03T05:26:30;0.50;99.90
8856;DHT22;4464;50.882;4.730;2023-04-03T05:28:56;0.60;99.90
8856;DHT22;4464;50.882;4.730;2023-04-03T05:31:22;0.60;99.90
8856;DHT22;4464;50.882;4.730;2023-04-03T05:33:47;0.60;99.90
8856;DHT22;4464;50.882;4.730;2023-04-03T05:36:13;0.60;99.90
8856;DHT22;4464;50.882;4.730;2023-04-03T05:38:40;0.60;99.90
8856;DHT22;4464;50.882;4.730;2023-04-03T05:41:08;0.60;99.90
8856;DHT22;4464;50.882;4.730;2023-04-03T05:43:34;0.60;99.90
8856;DHT22;4464;50.882;4.730;2023-04-03T05:46:03;0.60;99.90
8856;DHT22;4464;50.882;4.730;2023-04-03T05:48:28;0.70;99.90
8856;DHT22;4464;50.882;4.730;2023-04-03T05:50:54;0.70;99.90
8856;DHT22;4464;50.882;4.730;2023-04-03T05:53:28;0.70;99.90
8856;DHT22;4464;50.882;4.730;2023-04-03T05:55:54;0.70;99.90
8856;DHT22;4464;50.882;4.730;2023-04-03T05:58:20;0.80;99.90
8856;DHT22;4464;50.882;4.730;2023-04-03T06:00:46;0.80;99.90
8856;DHT22;4464;50.882;4.730;2023-04-03T06:03:12;0.90;99.90
8856;DHT22;4464;50.882;4.730;2023-04-03T06:05:38;1.00;99.90
8856;DHT22;4464;50.882;4.730;2023-04-03T06:08:03;1.10;99.90
8856;DHT22;4464;50.882;4.730;2023-04-03T06:10:29;1.10;99.90
8856;DHT22;4464;50.882;4.730;2023-04-03T06:12:58;1.20;99.90
8856;DHT22;4464;50.882;4.730;2023-04-03T06:15:23;1.30;99.90
8856;DHT22;4464;50.882;4.730;2023-04-03T06:17:50;1.40;99.90
8856;DHT22;4464;50.882;4.730;2023-04-03T06:20:18;1.50;99.90
8856;DHT22;4464;50.882;4.730;2023-04-03T06:22:44;1.70;99.90
8856;DHT22;4464;50.882;4.730;2023-04-03T06:25:09;1.70;99.90
8856;DHT22;4464;50.882;4.730;2023-04-03T06:27:35;1.80;99.90
8856;DHT22;4464;50.882;4.730;2023-04-03T06:30:04;1.90;99.90
8856;DHT22;4464;50.882;4.730;2023-04-03T06:32:30;2.00;99.90
8856;DHT22;4464;50.882;4.730;2023-04-03T06:34:58;2.00;99.90
8856;DHT22;4464;50.882;4.730;2023-04-03T06:37:25;2.10;99.90
8856;DHT22;4464;50.882;4.730;2023-04-03T06:39:52;2.20;99.90
8856;DHT22;4464;50.882;4.730;2023-04-03T06:42:18;2.30;99.90
8856;DHT22;4464;50.882;4.730;2023-04-03T06:44:43;2.30;99.90
8856;DHT22;4464;50.882;4.730;2023-04-03T06:47:14;2.40;99.90
8856;DHT22;4464;50.882;4.730;2023-04-03T06:49:40;2.50;99.90
8856;DHT22;4464;50.882;4.730;2023-04-03T06:52:07;2.60;99.90
8856;DHT22;4464;50.882;4.730;2023-04-03T06:54:35;2.70;99.90
8856;DHT22;4464;50.882;4.730;2023-04-03T06:57:02;2.70;99.90
8856;DHT22;4464;50.882;4.730;2023-04-03T06:59:28;2.80;99.90
8856;DHT22;4464;50.882;4.730;2023-04-03T07:01:53;2.90;99.90
8856;DHT22;4464;50.882;4.730;2023-04-03T07:04:21;2.90;99.90
8856;DHT22;4464;50.882;4.730;2023-04-03T07:06:47;3.00;99.90
8856;DHT22;4464;50.882;4.730;2023-04-03T07:09:14;3.00;99.90
8856;DHT22;4464;50.882;4.730;2023-04-03T07:11:40;3.20;99.90
8856;DHT22;4464;50.882;4.730;2023-04-03T07:14:08;3.20;99.90
8856;DHT22;4464;50.882;4.730;2023-04-03T07:16:37;3.20;99.90
8856;DHT22;4464;50.882;4.730;2023-04-03T07:19:03;3.30;99.90
8856;DHT22;4464;50.882;4.730;2023-04-03T07:21:29;3.40;99.90
8856;DHT22;4464;50.882;4.730;2023-04-03T07:23:55;3.50;99.90
8856;DHT22;4464;50.882;4.730;2023-04-03T07:26:21;3.50;99.90
8856;DHT22;4464;50.882;4.730;2023-04-03T07:28:48;3.60;99.90
8856;DHT22;4464;50.882;4.730;2023-04-03T07:31:19;3.70;99.90
8856;DHT22;4464;50.882;4.730;2023-04-03T07:33:45;3.80;99.90
8856;DHT22;4464;50.882;4.730;2023-04-03T07:36:16;3.90;99.90
8856;DHT22;4464;50.882;4.730;2023-04-03T07:38:42;4.00;99.90
8856;DHT22;4464;50.882;4.730;2023-04-03T07:41:16;4.10;99.90
8856;DHT22;4464;50.882;4.730;2023-04-03T07:43:43;4.20;99.90
8856;DHT22;4464;50.882;4.730;2023-04-03T07:46:09;4.30;99.90
8856;DHT22;4464;50.882;4.730;2023-04-03T07:48:36;4.40;99.90
8856;DHT22;4464;50.882;4.730;2023-04-03T07:51:02;4.50;99.90
8856;DHT22;4464;50.882;4.730;2023-04-03T07:53:29;4.80;99.90
8856;DHT22;4464;50.882;4.730;2023-04-03T07:55:57;5.00;99.90
8856;DHT22;4464;50.882;4.730;2023-04-03T07:58:23;5.20;99.90
8856;DHT22;4464;50.882;4.730;2023-04-03T08:00:49;5.30;99.90
8856;DHT22;4464;50.882;4.730;2023-04-03T08:03:15;5.50;99.90
8856;DHT22;4464;50.882;4.730;2023-04-03T08:05:49;5.60;99.90
8856;DHT22;4464;50.882;4.730;2023-04-03T08:08:21;5.90;99.90
8856;DHT22;4464;50.882;4.730;2023-04-03T08:10:53;6.40;99.90
8856;DHT22;4464;50.882;4.730;2023-04-03T08:13:20;7.00;99.90
8856;DHT22;4464;50.882;4.730;2023-04-03T08:15:49;7.70;99.90
8856;DHT22;4464;50.882;4.730;2023-04-03T08:18:18;8.20;99.90
8856;DHT22;4464;50.882;4.730;2023-04-03T08:20:47;8.80;99.90
8856;DHT22;4464;50.882;4.730;2023-04-03T08:23:12;9.50;99.90
8856;DHT22;4464;50.882;4.730;2023-04-03T08:25:42;10.10;99.90
8856;DHT22;4464;50.882;4.730;2023-04-03T08:28:09;10.30;99.90
8856;DHT22;4464;50.882;4.730;2023-04-03T08:30:38;10.40;99.90
8856;DHT22;4464;50.882;4.730;2023-04-03T08:33:06;10.30;99.90
8856;DHT22;4464;50.882;4.730;2023-04-03T08:35:32;10.10;99.90
8856;DHT22;4464;50.882;4.730;2023-04-03T08:37:58;10.50;99.90
8856;DHT22;4464;50.882;4.730;2023-04-03T08:40:24;11.00;99.90
8856;DHT22;4464;50.882;4.730;2023-04-03T08:45:49;11.30;99.90
8856;DHT22;4464;50.882;4.730;2023-04-03T08:48:35;11.30;99.90
8856;DHT22;4464;50.882;4.730;2023-04-03T08:51:08;11.30;99.90
8856;DHT22;4464;50.882;4.730;2023-04-03T08:53:42;11.40;99.90
8856;DHT22;4464;50.882;4.730;2023-04-03T08:56:12;11.90;99.90
8856;DHT22;4464;50.882;4.730;2023-04-03T08:58:54;12.50;99.70
8856;DHT22;4464;50.882;4.730;2023-04-03T09:01:46;12.70;99.00
8856;DHT22;4464;50.882;4.730;2023-04-03T09:04:15;13.00;98.00
8856;DHT22;4464;50.882;4.730;2023-04-03T09:06:51;13.50;98.10
8856;DHT22;4464;50.882;4.730;2023-04-03T09:09:39;13.90;97.40
8856;DHT22;4464;50.882;4.730;2023-04-03T09:17:41;13.30;95.80
8856;DHT22;4464;50.882;4.730;2023-04-03T09:22:58;13.50;96.30
8856;DHT22;4464;50.882;4.730;2023-04-03T09:25:30;13.80;96.30
8856;DHT22;4464;50.882;4.730;2023-04-03T09:28:01;14.50;95.20
8856;DHT22;4464;50.882;4.730;2023-04-03T09:30:28;15.10;95.10
8856;DHT22;4464;50.882;4.730;2023-04-03T09:32:57;14.60;95.10
8856;DHT22;4464;50.882;4.730;2023-04-03T09:35:28;14.50;94.80
8856;DHT22;4464;50.882;4.730;2023-04-03T09:38:01;14.20;94.40
8856;DHT22;4464;50.882;4.730;2023-04-03T09:40:31;14.10;94.40
8856;DHT22;4464;50.882;4.730;2023-04-03T09:43:04;14.10;94.30
8856;DHT22;4464;50.882;4.730;2023-04-03T09:45:45;14.30;94.30
8856;DHT22;4464;50.882;4.730;2023-04-03T09:51:00;13.90;94.30
8856;DHT22;4464;50.882;4.730;2023-04-03T09:53:43;13.40;94.00
8856;DHT22;4464;50.882;4.730;2023-04-03T09:58:45;14.80;94.60
8856;DHT22;4464;50.882;4.730;2023-04-03T10:04:15;15.80;92.50
8856;DHT22;4464;50.882;4.730;2023-04-03T10:06:49;15.90;92.30
8856;DHT22;4464;50.882;4.730;2023-04-03T10:09:31;15.30;91.60
8856;DHT22;4464;50.882;4.730;2023-04-03T10:11:58;15.70;92.60
8856;DHT22;4464;50.882;4.730;2023-04-03T10:14:25;15.30;92.40
8856;DHT22;4464;50.882;4.730;2023-04-03T10:17:09;14.40;91.90
8856;DHT22;4464;50.882;4.730;2023-04-03T10:19:45;14.80;92.20
8856;DHT22;4464;50.882;4.730;2023-04-03T10:22:20;15.70;91.20
8856;DHT22;4464;50.882;4.730;2023-04-03T10:30:21;16.00;90.00
8856;DHT22;4464;50.882;4.730;2023-04-03T10:36:04;15.60;89.10
8856;DHT22;4464;50.882;4.730;2023-04-03T10:38:48;16.10;89.80
8856;DHT22;4464;50.882;4.730;2023-04-03T10:44:08;16.00;86.30
8856;DHT22;4464;50.882;4.730;2023-04-03T10:57:22;15.60;80.40
8856;DHT22;4464;50.882;4.730;2023-04-03T11:00:01;15.60;80.40
8856;DHT22;4464;50.882;4.730;2023-04-03T11:02:36;16.10;77.70
8856;DHT22;4464;50.882;4.730;2023-04-03T11:07:52;16.40;80.30
8856;DHT22;4464;50.882;4.730;2023-04-03T11:10:23;16.00;74.70
8856;DHT22;4464;50.882;4.730;2023-04-03T11:13:07;15.80;77.10
8856;DHT22;4464;50.882;4.730;2023-04-03T11:15:41;15.70;78.80
8856;DHT22;4464;50.882;4.730;2023-04-03T11:20:42;15.10;72.70
8856;DHT22;4464;50.882;4.730;2023-04-03T11:23:21;14.70;72.40
8856;DHT22;4464;50.882;4.730;2023-04-03T11:25:52;15.30;73.10
8856;DHT22;4464;50.882;4.730;2023-04-03T11:28:19;16.00;70.80
8856;DHT22;4464;50.882;4.730;2023-04-03T11:36:25;17.60;69.70
8856;DHT22;4464;50.882;4.730;2023-04-03T11:38:57;17.60;69.70
8856;DHT22;4464;50.882;4.730;2023-04-03T11:41:31;18.20;64.80
8856;DHT22;4464;50.882;4.730;2023-04-03T11:44:00;17.40;63.70
8856;DHT22;4464;50.882;4.730;2023-04-03T11:46:49;17.20;64.40
8856;DHT22;4464;50.882;4.730;2023-04-03T12:05:51;19.80;59.30
8856;DHT22;4464;50.882;4.730;2023-04-03T12:08:34;19.70;59.00
8856;DHT22;4464;50.882;4.730;2023-04-03T12:16:06;19.20;58.50
8856;DHT22;4464;50.882;4.730;2023-04-03T12:24:15;20.30;56.30
8856;DHT22;4464;50.882;4.730;2023-04-03T12:43:41;19.30;53.90
8856;DHT22;4464;50.882;4.730;2023-04-03T12:48:55;20.90;51.50
8856;DHT22;4464;50.882;4.730;2023-04-03T12:51:38;20.70;50.00
8856;DHT22;4464;50.882;4.730;2023-04-03T12:54:38;20.00;51.90
8856;DHT22;4464;50.882;4.730;2023-04-03T12:57:18;20.20;51.10
8856;DHT22;4464;50.882;4.730;2023-04-03T12:59:47;20.60;52.50
8856;DHT22;4464;50.882;4.730;2023-04-03T13:04:53;19.90;53.30
8856;DHT22;4464;50.882;4.730;2023-04-03T13:07:31;20.60;53.30
8856;DHT22;4464;50.882;4.730;2023-04-03T13:10:19;20.60;53.90
8856;DHT22;4464;50.882;4.730;2023-04-03T13:12:52;20.40;52.60
8856;DHT22;4464;50.882;4.730;2023-04-03T13:15:19;20.70;53.00
8856;DHT22;4464;50.882;4.730;2023-04-03T13:17:46;21.10;53.70
8856;DHT22;4464;50.882;4.730;2023-04-03T13:22:53;21.60;50.50
8856;DHT22;4464;50.882;4.730;2023-04-03T13:25:24;20.20;51.80
8856;DHT22;4464;50.882;4.730;2023-04-03T13:27:51;19.10;51.60
8856;DHT22;4464;50.882;4.730;2023-04-03T13:30:30;19.40;53.10
8856;DHT22;4464;50.882;4.730;2023-04-03T13:32:59;20.40;52.30
8856;DHT22;4464;50.882;4.730;2023-04-03T13:35:42;20.90;52.70
8856;DHT22;4464;50.882;4.730;2023-04-03T13:40:49;20.20;48.90
8856;DHT22;4464;50.882;4.730;2023-04-03T13:43:20;19.90;48.90
8856;DHT22;4464;50.882;4.730;2023-04-03T13:48:37;19.80;48.80
8856;DHT22;4464;50.882;4.730;2023-04-03T13:53:56;18.70;49.50
8856;DHT22;4464;50.882;4.730;2023-04-03T13:56:27;19.70;50.60
8856;DHT22;4464;50.882;4.730;2023-04-03T13:58:59;19.80;51.60
8856;DHT22;4464;50.882;4.730;2023-04-03T14:01:36;19.60;48.10
8856;DHT22;4464;50.882;4.730;2023-04-03T14:04:21;19.50;49.20
8856;DHT22;4464;50.882;4.730;2023-04-03T14:06:47;20.10;49.40
8856;DHT22;4464;50.882;4.730;2023-04-03T14:09:17;20.70;50.10
8856;DHT22;4464;50.882;4.730;2023-04-03T14:11:43;20.80;49.10
8856;DHT22;4464;50.882;4.730;2023-04-03T14:14:19;21.00;48.00
8856;DHT22;4464;50.882;4.730;2023-04-03T14:16:50;20.30;47.90
8856;DHT22;4464;50.882;4.730;2023-04-03T14:19:25;19.60;46.90
8856;DHT22;4464;50.882;4.730;2023-04-03T14:21:52;19.40;47.10
8856;DHT22;4464;50.882;4.730;2023-04-03T14:24:22;18.90;48.40
8856;DHT22;4464;50.882;4.730;2023-04-03T14:26:50;19.20;48.70
8856;DHT22;4464;50.882;4.730;2023-04-03T14:29:17;19.70;49.90
8856;DHT22;4464;50.882;4.730;2023-04-03T14:31:43;20.10;50.00
8856;DHT22;4464;50.882;4.730;2023-04-03T14:34:14;20.50;49.90
8856;DHT22;4464;50.882;4.730;2023-04-03T14:36:41;19.80;50.00
8856;DHT22;4464;50.882;4.730;2023-04-03T14:39:11;20.00;51.00
8856;DHT22;4464;50.882;4.730;2023-04-03T14:41:42;20.70;51.10
8856;DHT22;4464;50.882;4.730;2023-04-03T14:44:08;20.70;49.90
8856;DHT22;4464;50.882;4.730;2023-04-03T14:46:39;21.30;50.00
8856;DHT22;4464;50.882;4.730;2023-04-03T14:49:15;21.40;50.40
8856;DHT22;4464;50.882;4.730;2023-04-03T14:51:44;21.20;49.60
8856;DHT22;4464;50.882;4.730;2023-04-03T14:54:18;20.80;49.90
8856;DHT22;4464;50.882;4.730;2023-04-03T14:56:44;20.70;49.90
8856;DHT22;4464;50.882;4.730;2023-04-03T14:59:14;19.70;49.00
8856;DHT22;4464;50.882;4.730;2023-04-03T15:01:41;19.90;50.00
8856;DHT22;4464;50.882;4.730;2023-04-03T15:04:12;19.70;49.30
8856;DHT22;4464;50.882;4.730;2023-04-03T15:06:39;20.00;50.00
8856;DHT22;4464;50.882;4.730;2023-04-03T15:09:25;20.20;51.20
8856;DHT22;4464;50.882;4.730;2023-04-03T15:11:52;20.90;49.90
8856;DHT22;4464;50.882;4.730;2023-04-03T15:14:21;20.90;50.40
8856;DHT22;4464;50.882;4.730;2023-04-03T15:16:47;20.30;49.70
8856;DHT22;4464;50.882;4.730;2023-04-03T15:19:14;19.00;51.10
8856;DHT22;4464;50.882;4.730;2023-04-03T15:21:40;20.30;52.00
8856;DHT22;4464;50.882;4.730;2023-04-03T15:24:06;21.10;51.60
8856;DHT22;4464;50.882;4.730;2023-04-03T15:26:32;20.60;51.30
8856;DHT22;4464;50.882;4.730;2023-04-03T15:28:58;20.70;51.80
8856;DHT22;4464;50.882;4.730;2023-04-03T15:31:24;20.80;50.50
8856;DHT22;4464;50.882;4.730;2023-04-03T15:33:49;21.10;50.10
8856;DHT22;4464;50.882;4.730;2023-04-03T15:36:15;21.30;49.40
8856;DHT22;4464;50.882;4.730;2023-04-03T15:38:41;20.70;50.50
8856;DHT22;4464;50.882;4.730;2023-04-03T15:41:06;21.30;50.50
8856;DHT22;4464;50.882;4.730;2023-04-03T15:43:32;20.70;49.80
8856;DHT22;4464;50.882;4.730;2023-04-03T15:46:01;20.60;50.30
8856;DHT22;4464;50.882;4.730;2023-04-03T15:48:28;19.80;51.10
8856;DHT22;4464;50.882;4.730;2023-04-03T15:50:57;19.70;51.40
8856;DHT22;4464;50.882;4.730;2023-04-03T15:53:22;18.80;51.60
8856;DHT22;4464;50.882;4.730;2023-04-03T15:55:48;19.00;52.50
8856;DHT22;4464;50.882;4.730;2023-04-03T15:58:14;19.10;52.30
8856;DHT22;4464;50.882;4.730;2023-04-03T16:00:42;18.80;52.30
8856;DHT22;4464;50.882;4.730;2023-04-03T16:03:19;18.90;53.00
8856;DHT22;4464;50.882;4.730;2023-04-03T16:05:48;19.20;53.40
8856;DHT22;4464;50.882;4.730;2023-04-03T16:08:15;19.50;52.00
8856;DHT22;4464;50.882;4.730;2023-04-03T16:10:41;18.60;51.70
8856;DHT22;4464;50.882;4.730;2023-04-03T16:13:07;18.60;52.90
8856;DHT22;4464;50.882;4.730;2023-04-03T16:15:34;18.60;53.10
8856;DHT22;4464;50.882;4.730;2023-04-03T16:18:00;17.90;52.40
8856;DHT22;4464;50.882;4.730;2023-04-03T16:20:26;18.20;53.10
8856;DHT22;4464;50.882;4.730;2023-04-03T16:22:52;17.90;53.30
8856;DHT22;4464;50.882;4.730;2023-04-03T16:25:19;17.60;53.60
8856;DHT22;4464;50.882;4.730;2023-04-03T16:27:47;17.50;54.70
8856;DHT22;4464;50.882;4.730;2023-04-03T16:30:13;18.00;54.20
8856;DHT22;4464;50.882;4.730;2023-04-03T16:32:47;17.20;54.00
8856;DHT22;4464;50.882;4.730;2023-04-03T16:35:13;17.30;53.50
8856;DHT22;4464;50.882;4.730;2023-04-03T16:37:41;17.00;53.80
8856;DHT22;4464;50.882;4.730;2023-04-03T16:40:07;16.50;54.30
8856;DHT22;4464;50.882;4.730;2023-04-03T16:42:33;15.90;54.80
8856;DHT22;4464;50.882;4.730;2023-04-03T16:44:59;15.60;55.70
8856;DHT22;4464;50.882;4.730;2023-04-03T16:47:28;15.00;56.40
8856;DHT22;4464;50.882;4.730;2023-04-03T16:49:55;14.00;57.60
8856;DHT22;4464;50.882;4.730;2023-04-03T16:52:21;13.20;58.00
8856;DHT22;4464;50.882;4.730;2023-04-03T16:54:49;12.50;58.60
8856;DHT22;4464;50.882;4.730;2023-04-03T16:57:21;12.20;60.00
8856;DHT22;4464;50.882;4.730;2023-04-03T16:59:47;12.00;60.80
8856;DHT22;4464;50.882;4.730;2023-04-03T17:02:13;12.00;62.20
8856;DHT22;4464;50.882;4.730;2023-04-03T17:04:38;11.70;61.00
8856;DHT22;4464;50.882;4.730;2023-04-03T17:07:04;11.40;61.10
8856;DHT22;4464;50.882;4.730;2023-04-03T17:09:34;11.20;62.80
8856;DHT22;4464;50.882;4.730;2023-04-03T17:12:00;11.00;63.10
8856;DHT22;4464;50.882;4.730;2023-04-03T17:14:28;10.90;63.60
8856;DHT22;4464;50.882;4.730;2023-04-03T17:16:53;10.90;63.10
8856;DHT22;4464;50.882;4.730;2023-04-03T17:19:19;10.80;63.80
8856;DHT22;4464;50.882;4.730;2023-04-03T17:21:51;10.80;63.90
8856;DHT22;4464;50.882;4.730;2023-04-03T17:24:19;10.80;64.20
8856;DHT22;4464;50.882;4.730;2023-04-03T17:26:45;10.70;64.70
8856;DHT22;4464;50.882;4.730;2023-04-03T17:29:13;10.50;64.80
8856;DHT22;4464;50.882;4.730;2023-04-03T17:31:41;10.40;64.60
8856;DHT22;4464;50.882;4.730;2023-04-03T17:34:09;10.40;64.70
8856;DHT22;4464;50.882;4.730;2023-04-03T17:36:37;10.30;65.90
8856;DHT22;4464;50.882;4.730;2023-04-03T17:39:04;10.20;65.60
8856;DHT22;4464;50.882;4.730;2023-04-03T17:41:30;10.10;66.10
8856;DHT22;4464;50.882;4.730;2023-04-03T17:43:58;10.10;66.60
8856;DHT22;4464;50.882;4.730;2023-04-03T17:46:25;10.00;66.20
8856;DHT22;4464;50.882;4.730;2023-04-03T17:48:53;10.00;66.10
8856;DHT22;4464;50.882;4.730;2023-04-03T17:51:21;9.90;67.10
8856;DHT22;4464;50.882;4.730;2023-04-03T17:53:48;9.80;67.50
8856;DHT22;4464;50.882;4.730;2023-04-03T17:56:19;9.80;68.40
8856;DHT22;4464;50.882;4.730;2023-04-03T17:58:49;9.80;68.60
8856;DHT22;4464;50.882;4.730;2023-04-03T18:01:18;9.70;68.10
8856;DHT22;4464;50.882;4.730;2023-04-03T18:03:45;9.60;68.60
8856;DHT22;4464;50.882;4.730;2023-04-03T18:06:14;9.50;68.30
8856;DHT22;4464;50.882;4.730;2023-04-03T18:08:44;9.50;69.20
8856;DHT22;4464;50.882;4.730;2023-04-03T18:11:12;9.40;70.20
8856;DHT22;4464;50.882;4.730;2023-04-03T18:13:38;9.30;70.10
8856;DHT22;4464;50.882;4.730;2023-04-03T18:16:06;9.10;70.00
8856;DHT22;4464;50.882;4.730;2023-04-03T18:18:32;9.10;71.00
8856;DHT22;4464;50.882;4.730;2023-04-03T18:21:01;9.00;70.90